sensor_id;sensor_type;location;lat;lon;timestamp;pressure;altitude;pressure_sealevel;temperature;humidity
50310;BME280;36207;51.850;21.698;2023-07-09T00:00:01;100234.60;;;15.48;57.85
50310;BME280;36207;51.850;21.698;2023-07-09T00:02:27;100233.77;;;15.45;57.48
50310;BME280;36207;51.850;21.698;2023-07-09T00:04:53;100231.08;;;15.42;57.67
50310;BME280;36207;51.850;21.698;2023-07-09T00:07:30;100228.45;;;15.39;57.93
50310;BME280;36207;51.850;21.698;2023-07-09T00:09:58;100232.84;;;15.34;58.11
50310;BME280;36207;51.850;21.698;2023-07-09T00:12:24;100235.61;;;15.29;58.02
50310;BME280;36207;51.850;21.698;2023-07-09T00:14:50;100239.20;;;15.25;57.64
50310;BME280;36207;51.850;21.698;2023-07-09T00:17:27;100238.36;;;15.23;58.10
50310;BME280;36207;51.850;21.698;2023-07-09T00:19:54;100243.51;;;15.23;57.91
50310;BME280;36207;51.850;21.698;2023-07-09T00:22:20;100247.19;;;15.24;58.04
50310;BME280;36207;51.850;21.698;2023-07-09T00:24:50;100242.13;;;15.23;57.76
50310;BME280;36207;51.850;21.698;2023-07-09T00:27:18;100243.51;;;15.21;58.46
50310;BME280;36207;51.850;21.698;2023-07-09T00:29:44;100246.42;;;15.17;58.54
50310;BME280;36207;51.850;21.698;2023-07-09T00:32:13;100243.73;;;15.13;58.52
50310;BME280;36207;51.850;21.698;2023-07-09T00:34:44;100242.98;;;15.09;58.60
50310;BME280;36207;51.850;21.698;2023-07-09T00:37:18;100240.62;;;15.08;58.71
50310;BME280;36207;51.850;21.698;2023-07-09T00:39:48;100242.56;;;15.07;58.62
50310;BME280;36207;51.850;21.698;2023-07-09T00:42:16;100243.41;;;15.05;58.70
50310;BME280;36207;51.850;21.698;2023-07-09T00:44:45;100240.80;;;15.02;59.14
50310;BME280;36207;51.850;21.698;2023-07-09T00:47:25;100239.05;;;14.97;59.01
50310;BME280;36207;51.850;21.698;2023-07-09T00:50:01;100232.55;;;14.93;58.99
50310;BME280;36207;51.850;21.698;2023-07-09T00:52:38;100228.23;;;14.92;58.84
50310;BME280;36207;51.850;21.698;2023-07-09T00:55:08;100228.31;;;14.93;58.84
50310;BME280;36207;51.850;21.698;2023-07-09T00:57:37;100230.40;;;14.95;58.84
50310;BME280;36207;51.850;21.698;2023-07-09T01:00:11;100231.52;;;14.97;59.02
50310;BME280;36207;51.850;21.698;2023-07-09T01:02:44;100233.68;;;14.97;59.15
50310;BME280;36207;51.850;21.698;2023-07-09T01:05:13;100234.25;;;14.95;59.18
50310;BME280;36207;51.850;21.698;2023-07-09T01:07:41;100236.02;;;14.91;59.32
50310;BME280;36207;51.850;21.698;2023-07-09T01:10:15;100237.04;;;14.87;59.46
50310;BME280;36207;51.850;21.698;2023-07-09T01:12:44;100237.85;;;14.82;59.36
50310;BME280;36207;51.850;21.698;2023-07-09T01:15:10;100240.81;;;14.79;59.24
50310;BME280;36207;51.850;21.698;2023-07-09T01:17:37;100242.20;;;14.72;59.51
50310;BME280;36207;51.850;21.698;2023-07-09T01:20:03;100243.50;;;14.67;59.47
50310;BME280;36207;51.850;21.698;2023-07-09T01:22:33;100243.52;;;14.65;59.71
50310;BME280;36207;51.850;21.698;2023-07-09T01:25:02;100247.02;;;14.60;60.37
50310;BME280;36207;51.850;21.698;2023-07-09T01:27:32;100244.77;;;14.55;60.46
50310;BME280;36207;51.850;21.698;2023-07-09T01:30:01;100242.94;;;14.54;60.49
50310;BME280;36207;51.850;21.698;2023-07-09T01:32:27;100240.71;;;14.54;60.28
50310;BME280;36207;51.850;21.698;2023-07-09T01:34:58;100238.45;;;14.57;60.05
50310;BME280;36207;51.850;21.698;2023-07-09T01:37:29;100239.05;;;14.60;60.25
50310;BME280;36207;51.850;21.698;2023-07-09T01:39:55;100241.08;;;14.64;60.13
50310;BME280;36207;51.850;21.698;2023-07-09T01:42:24;100236.92;;;14.67;60.18
50310;BME280;36207;51.850;21.698;2023-07-09T01:44:52;100235.08;;;14.70;60.31
50310;BME280;36207;51.850;21.698;2023-07-09T01:47:19;100239.26;;;14.72;59.93
50310;BME280;36207;51.850;21.698;2023-07-09T01:49:46;100242.02;;;14.73;60.27
50310;BME280;36207;51.850;21.698;2023-07-09T01:52:14;100246.33;;;14.70;60.34
50310;BME280;36207;51.850;21.698;2023-07-09T01:54:42;100243.48;;;14.69;60.46
50310;BME280;36207;51.850;21.698;2023-07-09T01:57:16;100241.94;;;14.72;60.40
50310;BME280;36207;51.850;21.698;2023-07-09T01:59:45;100246.02;;;14.80;60.25
50310;BME280;36207;51.850;21.698;2023-07-09T02:02:12;100253.91;;;14.85;60.61
50310;BME280;36207;51.850;21.698;2023-07-09T02:04:41;100252.14;;;14.88;60.53
50310;BME280;36207;51.850;21.698;2023-07-09T02:07:08;100246.44;;;14.91;60.65
50310;BME280;36207;51.850;21.698;2023-07-09T02:09:34;100248.89;;;14.93;60.55
50310;BME280;36207;51.850;21.698;2023-07-09T02:12:00;100250.34;;;14.95;60.55
50310;BME280;36207;51.850;21.698;2023-07-09T02:14:28;100246.32;;;14.91;60.49
50310;BME280;36207;51.850;21.698;2023-07-09T02:16:54;100249.46;;;14.93;60.58
50310;BME280;36207;51.850;21.698;2023-07-09T02:19:20;100250.17;;;14.94;60.74
50310;BME280;36207;51.850;21.698;2023-07-09T02:21:46;100248.23;;;14.94;60.67
50310;BME280;36207;51.850;21.698;2023-07-09T02:24:12;100247.95;;;14.95;60.68
50310;BME280;36207;51.850;21.698;2023-07-09T02:26:38;100246.83;;;14.95;60.46
50310;BME280;36207;51.850;21.698;2023-07-09T02:29:04;100246.42;;;14.96;60.65
50310;BME280;36207;51.850;21.698;2023-07-09T02:31:30;100249.48;;;14.97;60.39
50310;BME280;36207;51.850;21.698;2023-07-09T02:33:57;100253.45;;;14.99;60.33
50310;BME280;36207;51.850;21.698;2023-07-09T02:36:24;100252.17;;;15.01;60.61
50310;BME280;36207;51.850;21.698;2023-07-09T02:38:50;100249.71;;;15.05;60.60
50310;BME280;36207;51.850;21.698;2023-07-09T02:41:16;100248.08;;;15.10;60.72
50310;BME280;36207;51.850;21.698;2023-07-09T02:43:42;100244.52;;;15.14;60.79
50310;BME280;36207;51.850;21.698;2023-07-09T02:46:08;100245.02;;;15.17;60.63
50310;BME280;36207;51.850;21.698;2023-07-09T02:48:34;100246.81;;;15.20;60.60
50310;BME280;36207;51.850;21.698;2023-07-09T02:51:00;100249.63;;;15.22;60.45
50310;BME280;36207;51.850;21.698;2023-07-09T02:53:27;100251.54;;;15.24;60.65
50310;BME280;36207;51.850;21.698;2023-07-09T02:55:53;100253.08;;;15.27;60.82
50310;BME280;36207;51.850;21.698;2023-07-09T02:58:19;100248.77;;;15.29;60.92
50310;BME280;36207;51.850;21.698;2023-07-09T03:00:48;100242.94;;;15.33;60.82
50310;BME280;36207;51.850;21.698;2023-07-09T03:03:18;100243.23;;;15.37;60.90
50310;BME280;36207;51.850;21.698;2023-07-09T03:05:45;100247.48;;;15.40;60.84
50310;BME280;36207;51.850;21.698;2023-07-09T03:08:11;100247.30;;;15.42;60.81
50310;BME280;36207;51.850;21.698;2023-07-09T03:10:37;100248.17;;;15.42;61.03
50310;BME280;36207;51.850;21.698;2023-07-09T03:13:03;100254.17;;;15.43;60.63
50310;BME280;36207;51.850;21.698;2023-07-09T03:15:30;100257.29;;;15.46;60.70
50310;BME280;36207;51.850;21.698;2023-07-09T03:17:57;100255.96;;;15.49;60.93
50310;BME280;36207;51.850;21.698;2023-07-09T03:20:24;100255.47;;;15.53;61.08
50310;BME280;36207;51.850;21.698;2023-07-09T03:22:51;100258.21;;;15.58;60.94
50310;BME280;36207;51.850;21.698;2023-07-09T03:25:17;100257.66;;;15.62;61.02
50310;BME280;36207;51.850;21.698;2023-07-09T03:27:42;100256.39;;;15.66;60.90
50310;BME280;36207;51.850;21.698;2023-07-09T03:30:09;100254.35;;;15.70;60.81
50310;BME280;36207;51.850;21.698;2023-07-09T03:32:35;100252.90;;;15.73;60.93
50310;BME280;36207;51.850;21.698;2023-07-09T03:35:01;100251.17;;;15.77;60.79
50310;BME280;36207;51.850;21.698;2023-07-09T03:37:27;100252.48;;;15.83;60.86
50310;BME280;36207;51.850;21.698;2023-07-09T03:39:53;100254.63;;;15.90;61.11
50310;BME280;36207;51.850;21.698;2023-07-09T03:42:18;100254.00;;;15.96;61.06
50310;BME280;36207;51.850;21.698;2023-07-09T03:44:44;100251.36;;;16.01;61.15
50310;BME280;36207;51.850;21.698;2023-07-09T03:47:11;100252.89;;;16.06;61.14
50310;BME280;36207;51.850;21.698;2023-07-09T03:49:37;100251.23;;;16.10;60.98
50310;BME280;36207;51.850;21.698;2023-07-09T03:52:04;100254.98;;;16.14;60.94
50310;BME280;36207;51.850;21.698;2023-07-09T03:54:30;100254.02;;;16.19;61.06
50310;BME280;36207;51.850;21.698;2023-07-09T03:56:56;100255.34;;;16.25;60.92
50310;BME280;36207;51.850;21.698;2023-07-09T03:59:22;100255.33;;;16.33;60.92
50310;BME280;36207;51.850;21.698;2023-07-09T04:01:47;100260.52;;;16.42;60.86
50310;BME280;36207;51.850;21.698;2023-07-09T04:04:14;100265.89;;;16.50;60.91
50310;BME280;36207;51.850;21.698;2023-07-09T04:06:40;100262.98;;;16.58;60.96
50310;BME280;36207;51.850;21.698;2023-07-09T04:09:06;100263.44;;;16.65;60.97
50310;BME280;36207;51.850;21.698;2023-07-09T04:11:32;100259.10;;;16.71;60.97
50310;BME280;36207;51.850;21.698;2023-07-09T04:13:58;100265.00;;;16.78;60.99
50310;BME280;36207;51.850;21.698;2023-07-09T04:16:24;100267.00;;;16.85;60.89
50310;BME280;36207;51.850;21.698;2023-07-09T04:18:50;100272.20;;;16.91;60.76
50310;BME280;36207;51.850;21.698;2023-07-09T04:21:16;100265.74;;;16.99;60.75
50310;BME280;36207;51.850;21.698;2023-07-09T04:23:42;100266.60;;;17.08;60.68
50310;BME280;36207;51.850;21.698;2023-07-09T04:26:12;100268.83;;;17.19;60.93
50310;BME280;36207;51.850;21.698;2023-07-09T04:28:39;100271.63;;;17.30;60.86
50310;BME280;36207;51.850;21.698;2023-07-09T04:31:05;100272.31;;;17.39;60.82
50310;BME280;36207;51.850;21.698;2023-07-09T04:33:31;100276.05;;;17.46;60.58
50310;BME280;36207;51.850;21.698;2023-07-09T04:35:57;100278.95;;;17.55;60.78
50310;BME280;36207;51.850;21.698;2023-07-09T04:38:23;100275.45;;;17.63;60.62
50310;BME280;36207;51.850;21.698;2023-07-09T04:40:49;100273.96;;;17.71;60.45
50310;BME280;36207;51.850;21.698;2023-07-09T04:43:15;100277.79;;;17.78;60.33
50310;BME280;36207;51.850;21.698;2023-07-09T04:45:41;100279.03;;;17.86;60.67
50310;BME280;36207;51.850;21.698;2023-07-09T04:48:07;100282.34;;;17.93;60.50
50310;BME280;36207;51.850;21.698;2023-07-09T04:50:33;100284.39;;;18.01;60.48
50310;BME280;36207;51.850;21.698;2023-07-09T04:53:00;100288.71;;;18.10;60.22
50310;BME280;36207;51.850;21.698;2023-07-09T04:55:26;100284.58;;;18.17;60.12
50310;BME280;36207;51.850;21.698;2023-07-09T04:57:52;100284.08;;;18.25;60.09
50310;BME280;36207;51.850;21.698;2023-07-09T05:00:18;100283.01;;;18.33;60.17
50310;BME280;36207;51.850;21.698;2023-07-09T05:02:44;100285.30;;;18.39;59.84
50310;BME280;36207;51.850;21.698;2023-07-09T05:05:10;100287.88;;;18.47;59.97
50310;BME280;36207;51.850;21.698;2023-07-09T05:07:38;100292.90;;;18.56;59.94
50310;BME280;36207;51.850;21.698;2023-07-09T05:10:06;100293.98;;;18.65;59.93
50310;BME280;36207;51.850;21.698;2023-07-09T05:12:32;100290.80;;;18.74;59.90
50310;BME280;36207;51.850;21.698;2023-07-09T05:14:57;100290.09;;;18.83;59.78
50310;BME280;36207;51.850;21.698;2023-07-09T05:17:23;100287.48;;;18.92;59.51
50310;BME280;36207;51.850;21.698;2023-07-09T05:19:50;100288.21;;;19.01;59.65
50310;BME280;36207;51.850;21.698;2023-07-09T05:22:17;100295.08;;;19.08;59.43
50310;BME280;36207;51.850;21.698;2023-07-09T05:24:43;100297.55;;;19.19;59.57
50310;BME280;36207;51.850;21.698;2023-07-09T05:27:09;100297.35;;;19.30;59.56
50310;BME280;36207;51.850;21.698;2023-07-09T05:29:35;100297.51;;;19.42;59.37
50310;BME280;36207;51.850;21.698;2023-07-09T05:32:01;100298.67;;;19.54;59.46
50310;BME280;36207;51.850;21.698;2023-07-09T05:34:26;100303.20;;;19.65;59.33
50310;BME280;36207;51.850;21.698;2023-07-09T05:36:53;100297.00;;;19.76;59.16
50310;BME280;36207;51.850;21.698;2023-07-09T05:39:19;100294.11;;;19.87;59.19
50310;BME280;36207;51.850;21.698;2023-07-09T05:41:45;100295.75;;;19.98;59.10
50310;BME280;36207;51.850;21.698;2023-07-09T05:44:11;100294.91;;;20.08;58.96
50310;BME280;36207;51.850;21.698;2023-07-09T05:46:37;100295.20;;;20.19;58.79
50310;BME280;36207;51.850;21.698;2023-07-09T05:49:04;100299.28;;;20.28;58.64
50310;BME280;36207;51.850;21.698;2023-07-09T05:51:31;100302.77;;;20.36;58.56
50310;BME280;36207;51.850;21.698;2023-07-09T05:53:57;100304.91;;;20.47;58.48
50310;BME280;36207;51.850;21.698;2023-07-09T05:56:23;100305.69;;;20.59;58.30
50310;BME280;36207;51.850;21.698;2023-07-09T05:58:49;100304.63;;;20.70;58.42
50310;BME280;36207;51.850;21.698;2023-07-09T06:01:14;100312.65;;;20.82;58.46
50310;BME280;36207;51.850;21.698;2023-07-09T06:03:40;100313.21;;;20.94;58.12
50310;BME280;36207;51.850;21.698;2023-07-09T06:06:06;100311.14;;;21.04;58.11
50310;BME280;36207;51.850;21.698;2023-07-09T06:08:32;100312.75;;;21.14;58.07
50310;BME280;36207;51.850;21.698;2023-07-09T06:11:01;100312.34;;;21.27;58.07
50310;BME280;36207;51.850;21.698;2023-07-09T06:13:29;100315.32;;;21.39;57.71
50310;BME280;36207;51.850;21.698;2023-07-09T06:15:57;100316.67;;;21.51;57.80
50310;BME280;36207;51.850;21.698;2023-07-09T06:18:29;100320.00;;;21.61;57.69
50310;BME280;36207;51.850;21.698;2023-07-09T06:20:58;100323.70;;;21.74;57.53
50310;BME280;36207;51.850;21.698;2023-07-09T06:23:26;100329.10;;;21.87;57.39
50310;BME280;36207;51.850;21.698;2023-07-09T06:25:52;100330.69;;;21.97;57.18
50310;BME280;36207;51.850;21.698;2023-07-09T06:28:23;100331.77;;;22.07;57.23
50310;BME280;36207;51.850;21.698;2023-07-09T06:30:49;100331.69;;;22.21;57.29
50310;BME280;36207;51.850;21.698;2023-07-09T06:33:17;100328.09;;;22.35;57.00
50310;BME280;36207;51.850;21.698;2023-07-09T06:36:00;100330.84;;;22.47;56.51
50310;BME280;36207;51.850;21.698;2023-07-09T06:38:28;100332.06;;;22.57;56.26
50310;BME280;36207;51.850;21.698;2023-07-09T06:40:57;100332.02;;;22.66;56.14
50310;BME280;36207;51.850;21.698;2023-07-09T06:43:24;100328.68;;;22.77;56.17
50310;BME280;36207;51.850;21.698;2023-07-09T06:45:54;100326.15;;;22.88;56.15
50310;BME280;36207;51.850;21.698;2023-07-09T06:48:21;100329.46;;;22.99;55.88
50310;BME280;36207;51.850;21.698;2023-07-09T06:50:48;100330.27;;;23.09;55.89
50310;BME280;36207;51.850;21.698;2023-07-09T06:53:15;100322.83;;;23.20;55.86
50310;BME280;36207;51.850;21.698;2023-07-09T06:55:41;100326.36;;;23.31;55.58
50310;BME280;36207;51.850;21.698;2023-07-09T06:58:08;100327.48;;;23.39;55.45
50310;BME280;36207;51.850;21.698;2023-07-09T07:00:35;100330.63;;;23.48;55.06
50310;BME280;36207;51.850;21.698;2023-07-09T07:03:02;100331.13;;;23.54;54.97
50310;BME280;36207;51.850;21.698;2023-07-09T07:05:29;100329.40;;;23.61;54.83
50310;BME280;36207;51.850;21.698;2023-07-09T07:07:58;100335.16;;;23.69;54.66
50310;BME280;36207;51.850;21.698;2023-07-09T07:10:24;100338.27;;;23.78;54.28
50310;BME280;36207;51.850;21.698;2023-07-09T07:12:52;100338.15;;;23.84;54.22
50310;BME280;36207;51.850;21.698;2023-07-09T07:15:18;100339.05;;;23.94;54.16
50310;BME280;36207;51.850;21.698;2023-07-09T07:17:45;100338.98;;;24.05;54.14
50310;BME280;36207;51.850;21.698;2023-07-09T07:20:12;100339.83;;;24.16;54.13
50310;BME280;36207;51.850;21.698;2023-07-09T07:22:42;100342.20;;;24.27;54.01
50310;BME280;36207;51.850;21.698;2023-07-09T07:25:08;100342.54;;;24.41;54.08
50310;BME280;36207;51.850;21.698;2023-07-09T07:27:37;100340.48;;;24.51;53.59
50310;BME280;36207;51.850;21.698;2023-07-09T07:30:05;100337.91;;;24.59;53.09
50310;BME280;36207;51.850;21.698;2023-07-09T07:32:38;100337.34;;;24.65;53.03
50310;BME280;36207;51.850;21.698;2023-07-09T07:35:07;100337.05;;;24.73;52.75
50310;BME280;36207;51.850;21.698;2023-07-09T07:37:33;100336.98;;;24.81;52.53
50310;BME280;36207;51.850;21.698;2023-07-09T07:39:59;100339.00;;;24.90;52.50
50310;BME280;36207;51.850;21.698;2023-07-09T07:42:26;100340.23;;;24.98;52.44
50310;BME280;36207;51.850;21.698;2023-07-09T07:44:52;100334.30;;;25.04;52.10
50310;BME280;36207;51.850;21.698;2023-07-09T07:47:19;100335.36;;;25.11;52.03
50310;BME280;36207;51.850;21.698;2023-07-09T07:49:45;100335.15;;;25.19;52.32
50310;BME280;36207;51.850;21.698;2023-07-09T07:52:11;100335.57;;;25.30;52.06
50310;BME280;36207;51.850;21.698;2023-07-09T07:54:37;100337.08;;;25.41;51.50
50310;BME280;36207;51.850;21.698;2023-07-09T07:57:04;100338.08;;;25.49;51.34
50310;BME280;36207;51.850;21.698;2023-07-09T07:59:30;100336.89;;;25.56;51.58
50310;BME280;36207;51.850;21.698;2023-07-09T08:01:58;100339.46;;;25.63;51.25
50310;BME280;36207;51.850;21.698;2023-07-09T08:04:24;100337.18;;;25.72;51.23
50310;BME280;36207;51.850;21.698;2023-07-09T08:06:50;100335.28;;;25.83;51.20
50310;BME280;36207;51.850;21.698;2023-07-09T08:09:16;100339.36;;;25.94;51.01
50310;BME280;36207;51.850;21.698;2023-07-09T08:11:43;100337.49;;;26.01;51.01
50310;BME280;36207;51.850;21.698;2023-07-09T08:14:10;100336.29;;;26.09;51.05
50310;BME280;36207;51.850;21.698;2023-07-09T08:16:36;100340.73;;;26.21;50.58
50310;BME280;36207;51.850;21.698;2023-07-09T08:19:02;100338.41;;;26.29;50.27
50310;BME280;36207;51.850;21.698;2023-07-09T08:21:29;100332.27;;;26.36;50.39
50310;BME280;36207;51.850;21.698;2023-07-09T08:23:55;100331.86;;;26.46;50.17
50310;BME280;36207;51.850;21.698;2023-07-09T08:26:24;100333.51;;;26.57;49.99
50310;BME280;36207;51.850;21.698;2023-07-09T08:28:51;100334.08;;;26.68;49.88
50310;BME280;36207;51.850;21.698;2023-07-09T08:31:17;100328.90;;;26.77;49.90
50310;BME280;36207;51.850;21.698;2023-07-09T08:33:44;100324.99;;;26.83;48.14
50310;BME280;36207;51.850;21.698;2023-07-09T08:36:13;100325.52;;;26.88;49.39
50310;BME280;36207;51.850;21.698;2023-07-09T08:38:43;100329.36;;;27.01;49.47
50310;BME280;36207;51.850;21.698;2023-07-09T08:41:24;100325.52;;;27.17;49.24
50310;BME280;36207;51.850;21.698;2023-07-09T08:44:07;100323.91;;;27.32;49.01
50310;BME280;36207;51.850;21.698;2023-07-09T08:49:37;100323.31;;;27.40;48.41
50310;BME280;36207;51.850;21.698;2023-07-09T08:52:12;100324.65;;;27.45;48.29
50310;BME280;36207;51.850;21.698;2023-07-09T08:54:41;100326.02;;;27.54;48.34
50310;BME280;36207;51.850;21.698;2023-07-09T08:57:26;100320.29;;;27.65;47.70
50310;BME280;36207;51.850;21.698;2023-07-09T09:02:46;100319.70;;;27.82;47.49
50310;BME280;36207;51.850;21.698;2023-07-09T09:05:20;100318.03;;;27.92;47.22
50310;BME280;36207;51.850;21.698;2023-07-09T09:07:58;100323.75;;;27.97;47.07
50310;BME280;36207;51.850;21.698;2023-07-09T09:10:41;100323.17;;;28.08;46.89
50310;BME280;36207;51.850;21.698;2023-07-09T09:13:14;100321.98;;;28.18;46.99
50310;BME280;36207;51.850;21.698;2023-07-09T09:15:46;100323.16;;;28.25;46.67
50310;BME280;36207;51.850;21.698;2023-07-09T09:18:20;100325.52;;;28.30;45.76
50310;BME280;36207;51.850;21.698;2023-07-09T09:20:53;100323.37;;;28.34;45.53
50310;BME280;36207;51.850;21.698;2023-07-09T09:26:44;100323.61;;;28.49;45.36
50310;BME280;36207;51.850;21.698;2023-07-09T09:32:09;100320.77;;;28.68;45.12
50310;BME280;36207;51.850;21.698;2023-07-09T09:34:43;100320.83;;;28.76;45.13
50310;BME280;36207;51.850;21.698;2023-07-09T09:37:31;100324.61;;;28.86;44.86
50310;BME280;36207;51.850;21.698;2023-07-09T09:39:58;100321.96;;;28.91;43.15
50310;BME280;36207;51.850;21.698;2023-07-09T09:42:25;100315.16;;;28.94;43.21
50310;BME280;36207;51.850;21.698;2023-07-09T09:45:00;100318.83;;;29.00;42.36
50310;BME280;36207;51.850;21.698;2023-07-09T09:47:30;100320.02;;;29.07;43.23
50310;BME280;36207;51.850;21.698;2023-07-09T09:50:05;100317.19;;;29.14;43.15
50310;BME280;36207;51.850;21.698;2023-07-09T09:52:34;100313.35;;;29.18;42.22
50310;BME280;36207;51.850;21.698;2023-07-09T09:55:11;100316.23;;;29.23;42.10
50310;BME280;36207;51.850;21.698;2023-07-09T09:57:38;100310.73;;;29.31;42.46
50310;BME280;36207;51.850;21.698;2023-07-09T10:00:05;100308.44;;;29.38;42.00
50310;BME280;36207;51.850;21.698;2023-07-09T10:02:39;100308.06;;;29.41;41.53
50310;BME280;36207;51.850;21.698;2023-07-09T10:05:12;100309.48;;;29.42;41.21
50310;BME280;36207;51.850;21.698;2023-07-09T10:07:57;100306.91;;;29.45;41.62
50310;BME280;36207;51.850;21.698;2023-07-09T10:10:46;100308.30;;;29.55;41.65
50310;BME280;36207;51.850;21.698;2023-07-09T10:13:20;100310.86;;;29.59;41.04
50310;BME280;36207;51.850;21.698;2023-07-09T10:16:05;100308.35;;;29.64;40.81
50310;BME280;36207;51.850;21.698;2023-07-09T10:35:10;100307.98;;;30.00;39.11
50310;BME280;36207;51.850;21.698;2023-07-09T10:38:01;100308.13;;;30.00;39.23
50310;BME280;36207;51.850;21.698;2023-07-09T10:40:43;100305.98;;;30.07;38.85
50310;BME280;36207;51.850;21.698;2023-07-09T10:43:41;100305.06;;;30.09;38.41
50310;BME280;36207;51.850;21.698;2023-07-09T10:46:18;100300.46;;;30.11;38.82
50310;BME280;36207;51.850;21.698;2023-07-09T10:48:54;100298.70;;;30.11;38.32
50310;BME280;36207;51.850;21.698;2023-07-09T10:51:27;100300.04;;;30.13;36.98
50310;BME280;36207;51.850;21.698;2023-07-09T10:54:00;100300.52;;;30.13;37.21
50310;BME280;36207;51.850;21.698;2023-07-09T10:56:37;100304.64;;;30.17;37.69
50310;BME280;36207;51.850;21.698;2023-07-09T11:01:49;100303.22;;;30.28;38.10
50310;BME280;36207;51.850;21.698;2023-07-09T11:04:33;100300.83;;;30.35;37.43
50310;BME280;36207;51.850;21.698;2023-07-09T11:07:04;100295.23;;;30.42;37.55
50310;BME280;36207;51.850;21.698;2023-07-09T11:09:35;100297.68;;;30.46;37.39
50310;BME280;36207;51.850;21.698;2023-07-09T11:12:08;100301.81;;;30.47;36.86
50310;BME280;36207;51.850;21.698;2023-07-09T11:14:42;100299.50;;;30.46;36.56
50310;BME280;36207;51.850;21.698;2023-07-09T11:17:18;100298.91;;;30.45;36.22
50310;BME280;36207;51.850;21.698;2023-07-09T11:19:47;100302.23;;;30.45;36.72
50310;BME280;36207;51.850;21.698;2023-07-09T11:22:22;100298.87;;;30.50;36.63
50310;BME280;36207;51.850;21.698;2023-07-09T11:24:49;100299.46;;;30.57;36.08
50310;BME280;36207;51.850;21.698;2023-07-09T11:27:24;100296.52;;;30.58;35.91
50310;BME280;36207;51.850;21.698;2023-07-09T11:30:22;100293.80;;;30.56;34.32
50310;BME280;36207;51.850;21.698;2023-07-09T11:33:02;100298.65;;;30.55;35.85
50310;BME280;36207;51.850;21.698;2023-07-09T11:35:50;100291.15;;;30.59;35.65
50310;BME280;36207;51.850;21.698;2023-07-09T11:38:21;100289.74;;;30.63;35.87
50310;BME280;36207;51.850;21.698;2023-07-09T11:40:57;100294.17;;;30.67;35.90
50310;BME280;36207;51.850;21.698;2023-07-09T11:43:35;100295.38;;;30.73;35.95
50310;BME280;36207;51.850;21.698;2023-07-09T11:46:17;100292.84;;;30.80;35.82
50310;BME280;36207;51.850;21.698;2023-07-09T11:48:44;100292.95;;;30.86;35.40
50310;BME280;36207;51.850;21.698;2023-07-09T11:51:36;100285.86;;;30.87;34.79
50310;BME280;36207;51.850;21.698;2023-07-09T11:54:04;100292.25;;;30.82;34.93
50310;BME280;36207;51.850;21.698;2023-07-09T11:56:30;100290.54;;;30.82;35.05
50310;BME280;36207;51.850;21.698;2023-07-09T11:58:57;100291.11;;;30.87;34.78
50310;BME280;36207;51.850;21.698;2023-07-09T12:01:34;100284.05;;;30.90;35.10
50310;BME280;36207;51.850;21.698;2023-07-09T12:04:16;100289.85;;;30.94;34.90
50310;BME280;36207;51.850;21.698;2023-07-09T12:06:48;100296.51;;;31.00;35.19
50310;BME280;36207;51.850;21.698;2023-07-09T12:09:21;100297.71;;;31.07;34.88
50310;BME280;36207;51.850;21.698;2023-07-09T12:11:50;100296.38;;;31.10;34.58
50310;BME280;36207;51.850;21.698;2023-07-09T12:14:20;100292.87;;;31.10;34.70
50310;BME280;36207;51.850;21.698;2023-07-09T12:16:49;100288.98;;;31.11;34.39
50310;BME280;36207;51.850;21.698;2023-07-09T12:19:19;100283.61;;;31.09;34.13
50310;BME280;36207;51.850;21.698;2023-07-09T12:21:52;100284.95;;;31.06;33.78
50310;BME280;36207;51.850;21.698;2023-07-09T12:24:27;100285.83;;;31.01;33.92
50310;BME280;36207;51.850;21.698;2023-07-09T12:26:58;100280.14;;;30.96;33.90
50310;BME280;36207;51.850;21.698;2023-07-09T12:29:29;100276.13;;;30.93;33.99
50310;BME280;36207;51.850;21.698;2023-07-09T12:32:03;100274.25;;;30.97;34.18
50310;BME280;36207;51.850;21.698;2023-07-09T12:34:32;100273.27;;;31.02;33.54
50310;BME280;36207;51.850;21.698;2023-07-09T12:36:58;100272.31;;;31.04;33.93
50310;BME280;36207;51.850;21.698;2023-07-09T12:39:27;100263.38;;;31.07;33.64
50310;BME280;36207;51.850;21.698;2023-07-09T12:42:02;100262.88;;;31.09;32.61
50310;BME280;36207;51.850;21.698;2023-07-09T12:44:31;100262.25;;;31.08;32.35
50310;BME280;36207;51.850;21.698;2023-07-09T12:47:00;100270.61;;;31.09;33.00
50310;BME280;36207;51.850;21.698;2023-07-09T12:49:29;100272.46;;;31.14;32.99
50310;BME280;36207;51.850;21.698;2023-07-09T12:51:57;100276.21;;;31.17;33.39
50310;BME280;36207;51.850;21.698;2023-07-09T12:54:24;100271.05;;;31.19;33.22
50310;BME280;36207;51.850;21.698;2023-07-09T12:56:55;100262.67;;;31.20;33.15
50310;BME280;36207;51.850;21.698;2023-07-09T12:59:45;100258.38;;;31.22;33.35
50310;BME280;36207;51.850;21.698;2023-07-09T13:02:26;100257.45;;;31.17;32.18
50310;BME280;36207;51.850;21.698;2023-07-09T13:05:05;100259.07;;;31.04;32.40
50310;BME280;36207;51.850;21.698;2023-07-09T13:07:33;100264.97;;;31.00;32.10
50310;BME280;36207;51.850;21.698;2023-07-09T13:10:27;100260.65;;;30.98;32.38
50310;BME280;36207;51.850;21.698;2023-07-09T13:13:01;100262.61;;;31.01;32.30
50310;BME280;36207;51.850;21.698;2023-07-09T13:15:40;100266.14;;;31.01;32.10
50310;BME280;36207;51.850;21.698;2023-07-09T13:18:12;100268.59;;;31.03;32.17
50310;BME280;36207;51.850;21.698;2023-07-09T13:20:48;100262.44;;;31.04;32.10
50310;BME280;36207;51.850;21.698;2023-07-09T13:23:20;100266.75;;;31.01;31.71